sensor_id;sensor_type;location;lat;lon;timestamp;P1;durP1;ratioP1;P2;durP2;ratioP2
81231;SDS011;70703;55.652;37.710;2024-01-10T00:00:04;4.63;;;2.28;;
81231;SDS011;70703;55.652;37.710;2024-01-10T00:00:15;4.65;;;2.17;;
81231;SDS011;70703;55.652;37.710;2024-01-10T00:00:27;4.60;;;2.30;;
81231;SDS011;70703;55.652;37.710;2024-01-10T00:00:40;4.43;;;2.20;;
81231;SDS011;70703;55.652;37.710;2024-01-10T00:00:51;4.78;;;2.42;;
81231;SDS011;70703;55.652;37.710;2024-01-10T00:01:03;5.72;;;2.58;;
81231;SDS011;70703;55.652;37.710;2024-01-10T00:01:14;5.47;;;2.60;;
81231;SDS011;70703;55.652;37.710;2024-01-10T00:01:26;4.80;;;2.28;;
81231;SDS011;70703;55.652;37.710;2024-01-10T00:01:38;4.28;;;2.15;;
81231;SDS011;70703;55.652;37.710;2024-01-10T00:01:49;4.10;;;2.10;;
81231;SDS011;70703;55.652;37.710;2024-01-10T00:02:01;4.15;;;2.25;;
81231;SDS011;70703;55.652;37.710;2024-01-10T00:02:12;4.38;;;2.30;;
81231;SDS011;70703;55.652;37.710;2024-01-10T00:02:23;4.93;;;2.40;;
81231;SDS011;70703;55.652;37.710;2024-01-10T00:02:35;5.55;;;2.60;;
81231;SDS011;70703;55.652;37.710;2024-01-10T00:02:46;5.60;;;2.47;;
81231;SDS011;70703;55.652;37.710;2024-01-10T00:02:56;5.47;;;2.60;;
81231;SDS011;70703;55.652;37.710;2024-01-10T00:03:09;4.65;;;2.60;;
81231;SDS011;70703;55.652;37.710;2024-01-10T00:03:22;4.97;;;2.78;;
81231;SDS011;70703;55.652;37.710;2024-01-10T00:03:33;4.65;;;2.58;;
81231;SDS011;70703;55.652;37.710;2024-01-10T00:03:44;4.57;;;2.47;;
81231;SDS011;70703;55.652;37.710;2024-01-10T00:03:55;4.40;;;2.30;;
81231;SDS011;70703;55.652;37.710;2024-01-10T00:04:07;5.10;;;2.60;;
81231;SDS011;70703;55.652;37.710;2024-01-10T00:04:18;5.23;;;2.53;;
81231;SDS011;70703;55.652;37.710;2024-01-10T00:04:29;5.53;;;2.70;;
81231;SDS011;70703;55.652;37.710;2024-01-10T00:04:41;5.60;;;2.58;;
81231;SDS011;70703;55.652;37.710;2024-01-10T00:04:53;5.15;;;2.40;;
81231;SDS011;70703;55.652;37.710;2024-01-10T00:05:09;4.45;;;2.20;;
81231;SDS011;70703;55.652;37.710;2024-01-10T00:05:21;4.38;;;2.20;;
81231;SDS011;70703;55.652;37.710;2024-01-10T00:05:32;4.50;;;2.28;;
81231;SDS011;70703;55.652;37.710;2024-01-10T00:05:44;5.25;;;2.30;;
81231;SDS011;70703;55.652;37.710;2024-01-10T00:05:55;5.40;;;2.35;;
81231;SDS011;70703;55.652;37.710;2024-01-10T00:06:07;5.40;;;2.58;;
81231;SDS011;70703;55.652;37.710;2024-01-10T00:06:18;4.95;;;2.70;;
81231;SDS011;70703;55.652;37.710;2024-01-10T00:06:31;4.82;;;2.53;;
81231;SDS011;70703;55.652;37.710;2024-01-10T00:06:43;4.00;;;2.25;;
81231;SDS011;70703;55.652;37.710;2024-01-10T00:06:55;3.92;;;2.30;;
81231;SDS011;70703;55.652;37.710;2024-01-10T00:07:05;4.65;;;2.45;;
81231;SDS011;70703;55.652;37.710;2024-01-10T00:07:18;4.95;;;2.50;;
81231;SDS011;70703;55.652;37.710;2024-01-10T00:07:29;4.80;;;2.50;;
81231;SDS011;70703;55.652;37.710;2024-01-10T00:07:41;4.53;;;2.47;;
81231;SDS011;70703;55.652;37.710;2024-01-10T00:07:53;4.50;;;2.58;;
81231;SDS011;70703;55.652;37.710;2024-01-10T00:08:05;5.60;;;2.65;;
81231;SDS011;70703;55.652;37.710;2024-01-10T00:08:18;5.70;;;2.70;;
81231;SDS011;70703;55.652;37.710;2024-01-10T00:08:30;4.75;;;2.47;;
81231;SDS011;70703;55.652;37.710;2024-01-10T00:08:41;4.20;;;2.30;;
81231;SDS011;70703;55.652;37.710;2024-01-10T00:08:52;4.35;;;2.38;;
81231;SDS011;70703;55.652;37.710;2024-01-10T00:09:04;4.70;;;2.60;;
81231;SDS011;70703;55.652;37.710;2024-01-10T00:09:16;5.43;;;2.80;;
81231;SDS011;70703;55.652;37.710;2024-01-10T00:09:28;5.47;;;2.78;;
81231;SDS011;70703;55.652;37.710;2024-01-10T00:09:39;4.85;;;2.75;;
81231;SDS011;70703;55.652;37.710;2024-01-10T00:09:51;4.95;;;2.65;;
81231;SDS011;70703;55.652;37.710;2024-01-10T00:10:03;5.12;;;2.64;;
81231;SDS011;70703;55.652;37.710;2024-01-10T00:10:15;4.70;;;2.50;;
81231;SDS011;70703;55.652;37.710;2024-01-10T00:10:26;4.55;;;2.42;;
81231;SDS011;70703;55.652;37.710;2024-01-10T00:10:39;4.18;;;2.30;;
81231;SDS011;70703;55.652;37.710;2024-01-10T00:10:52;4.28;;;2.35;;
81231;SDS011;70703;55.652;37.710;2024-01-10T00:11:06;4.70;;;2.58;;
81231;SDS011;70703;55.652;37.710;2024-01-10T00:11:18;4.72;;;2.70;;
81231;SDS011;70703;55.652;37.710;2024-01-10T00:11:30;4.35;;;2.58;;
81231;SDS011;70703;55.652;37.710;2024-01-10T00:11:42;4.45;;;2.50;;
81231;SDS011;70703;55.652;37.710;2024-01-10T00:11:54;4.90;;;2.55;;
81231;SDS011;70703;55.652;37.710;2024-01-10T00:12:06;5.40;;;2.65;;
81231;SDS011;70703;55.652;37.710;2024-01-10T00:12:17;5.25;;;2.67;;
81231;SDS011;70703;55.652;37.710;2024-01-10T00:12:28;4.85;;;2.70;;
81231;SDS011;70703;55.652;37.710;2024-01-10T00:12:44;4.43;;;2.63;;
81231;SDS011;70703;55.652;37.710;2024-01-10T00:12:56;4.38;;;2.65;;
81231;SDS011;70703;55.652;37.710;2024-01-10T00:13:09;4.72;;;2.85;;
81231;SDS011;70703;55.652;37.710;2024-01-10T00:13:20;4.55;;;2.67;;
81231;SDS011;70703;55.652;37.710;2024-01-10T00:13:31;5.15;;;2.70;;
81231;SDS011;70703;55.652;37.710;2024-01-10T00:13:42;5.35;;;2.75;;
81231;SDS011;70703;55.652;37.710;2024-01-10T00:13:54;5.60;;;2.80;;
81231;SDS011;70703;55.652;37.710;2024-01-10T00:14:10;5.32;;;2.67;;
81231;SDS011;70703;55.652;37.710;2024-01-10T00:14:21;5.32;;;2.70;;
81231;SDS011;70703;55.652;37.710;2024-01-10T00:14:32;5.30;;;2.88;;
81231;SDS011;70703;55.652;37.710;2024-01-10T00:14:44;5.18;;;2.90;;
81231;SDS011;70703;55.652;37.710;2024-01-10T00:14:56;5.22;;;2.83;;
81231;SDS011;70703;55.652;37.710;2024-01-10T00:15:09;4.97;;;2.70;;
81231;SDS011;70703;55.652;37.710;2024-01-10T00:15:21;4.60;;;2.60;;
81231;SDS011;70703;55.652;37.710;2024-01-10T00:15:33;5.22;;;2.72;;
81231;SDS011;70703;55.652;37.710;2024-01-10T00:15:44;5.45;;;2.70;;
81231;SDS011;70703;55.652;37.710;2024-01-10T00:15:55;5.20;;;2.60;;
81231;SDS011;70703;55.652;37.710;2024-01-10T00:16:07;5.02;;;2.50;;
81231;SDS011;70703;55.652;37.710;2024-01-10T00:16:18;5.10;;;2.65;;
81231;SDS011;70703;55.652;37.710;2024-01-10T00:16:29;5.25;;;2.70;;
81231;SDS011;70703;55.652;37.710;2024-01-10T00:16:40;4.97;;;2.70;;
81231;SDS011;70703;55.652;37.710;2024-01-10T00:16:52;5.05;;;2.50;;
81231;SDS011;70703;55.652;37.710;2024-01-10T00:17:04;5.10;;;2.50;;
81231;SDS011;70703;55.652;37.710;2024-01-10T00:17:16;4.68;;;2.55;;
81231;SDS011;70703;55.652;37.710;2024-01-10T00:17:29;5.13;;;2.70;;
81231;SDS011;70703;55.652;37.710;2024-01-10T00:17:40;4.97;;;2.50;;
81231;SDS011;70703;55.652;37.710;2024-01-10T00:17:51;5.07;;;2.58;;
81231;SDS011;70703;55.652;37.710;2024-01-10T00:18:03;5.05;;;2.65;;
81231;SDS011;70703;55.652;37.710;2024-01-10T00:18:15;5.30;;;2.80;;
81231;SDS011;70703;55.652;37.710;2024-01-10T00:18:26;5.07;;;2.85;;
81231;SDS011;70703;55.652;37.710;2024-01-10T00:18:37;4.28;;;2.60;;
81231;SDS011;70703;55.652;37.710;2024-01-10T00:18:50;4.35;;;2.60;;
81231;SDS011;70703;55.652;37.710;2024-01-10T00:19:01;5.40;;;2.88;;
81231;SDS011;70703;55.652;37.710;2024-01-10T00:19:13;5.57;;;2.85;;
81231;SDS011;70703;55.652;37.710;2024-01-10T00:19:25;5.22;;;2.80;;
81231;SDS011;70703;55.652;37.710;2024-01-10T00:19:36;5.10;;;2.72;;
81231;SDS011;70703;55.652;37.710;2024-01-10T00:19:47;5.05;;;2.72;;
81231;SDS011;70703;55.652;37.710;2024-01-10T00:19:59;5.28;;;2.85;;
81231;SDS011;70703;55.652;37.710;2024-01-10T00:20:11;5.72;;;2.92;;
81231;SDS011;70703;55.652;37.710;2024-01-10T00:20:22;6.55;;;3.10;;
81231;SDS011;70703;55.652;37.710;2024-01-10T00:20:35;5.82;;;2.90;;
81231;SDS011;70703;55.652;37.710;2024-01-10T00:20:46;4.72;;;2.67;;
81231;SDS011;70703;55.652;37.710;2024-01-10T00:20:58;4.50;;;2.65;;
81231;SDS011;70703;55.652;37.710;2024-01-10T00:21:10;4.95;;;2.85;;
81231;SDS011;70703;55.652;37.710;2024-01-10T00:21:22;5.00;;;2.83;;
81231;SDS011;70703;55.652;37.710;2024-01-10T00:21:34;4.78;;;2.70;;
81231;SDS011;70703;55.652;37.710;2024-01-10T00:21:47;4.88;;;2.80;;
81231;SDS011;70703;55.652;37.710;2024-01-10T00:21:57;5.28;;;2.80;;
81231;SDS011;70703;55.652;37.710;2024-01-10T00:22:09;5.80;;;2.90;;
81231;SDS011;70703;55.652;37.710;2024-01-10T00:22:21;5.68;;;2.90;;
81231;SDS011;70703;55.652;37.710;2024-01-10T00:22:33;5.00;;;2.83;;
81231;SDS011;70703;55.652;37.710;2024-01-10T00:22:46;4.88;;;2.70;;
81231;SDS011;70703;55.652;37.710;2024-01-10T00:22:57;4.80;;;2.60;;
81231;SDS011;70703;55.652;37.710;2024-01-10T00:23:11;5.50;;;2.60;;
81231;SDS011;70703;55.652;37.710;2024-01-10T00:23:23;5.80;;;2.60;;
81231;SDS011;70703;55.652;37.710;2024-01-10T00:23:34;6.05;;;2.70;;
81231;SDS011;70703;55.652;37.710;2024-01-10T00:23:46;6.35;;;2.85;;
81231;SDS011;70703;55.652;37.710;2024-01-10T00:23:58;6.68;;;3.00;;
81231;SDS011;70703;55.652;37.710;2024-01-10T00:24:10;6.40;;;2.97;;
81231;SDS011;70703;55.652;37.710;2024-01-10T00:24:22;5.28;;;2.88;;
81231;SDS011;70703;55.652;37.710;2024-01-10T00:24:33;5.55;;;2.90;;
81231;SDS011;70703;55.652;37.710;2024-01-10T00:24:50;5.65;;;2.83;;
81231;SDS011;70703;55.652;37.710;2024-01-10T00:25:02;5.10;;;2.63;;
81231;SDS011;70703;55.652;37.710;2024-01-10T00:25:15;5.18;;;2.45;;
81231;SDS011;70703;55.652;37.710;2024-01-10T00:25:26;5.38;;;2.50;;
81231;SDS011;70703;55.652;37.710;2024-01-10T00:25:37;5.57;;;2.63;;
81231;SDS011;70703;55.652;37.710;2024-01-10T00:25:50;5.55;;;2.80;;
81231;SDS011;70703;55.652;37.710;2024-01-10T00:26:02;5.70;;;2.83;;
81231;SDS011;70703;55.652;37.710;2024-01-10T00:26:15;5.68;;;2.80;;
81231;SDS011;70703;55.652;37.710;2024-01-10T00:26:26;5.55;;;2.90;;
81231;SDS011;70703;55.652;37.710;2024-01-10T00:26:38;5.55;;;2.80;;
81231;SDS011;70703;55.652;37.710;2024-01-10T00:26:49;6.10;;;2.75;;
81231;SDS011;70703;55.652;37.710;2024-01-10T00:27:01;5.78;;;2.70;;
81231;SDS011;70703;55.652;37.710;2024-01-10T00:27:13;5.50;;;2.80;;
81231;SDS011;70703;55.652;37.710;2024-01-10T00:27:24;5.00;;;2.90;;
81231;SDS011;70703;55.652;37.710;2024-01-10T00:27:36;5.38;;;2.92;;
81231;SDS011;70703;55.652;37.710;2024-01-10T00:27:49;5.05;;;2.85;;
81231;SDS011;70703;55.652;37.710;2024-01-10T00:28:01;4.43;;;2.70;;
81231;SDS011;70703;55.652;37.710;2024-01-10T00:28:14;4.43;;;2.80;;
81231;SDS011;70703;55.652;37.710;2024-01-10T00:28:27;4.70;;;2.78;;
81231;SDS011;70703;55.652;37.710;2024-01-10T00:28:38;4.82;;;2.72;;
81231;SDS011;70703;55.652;37.710;2024-01-10T00:28:49;4.90;;;2.80;;
81231;SDS011;70703;55.652;37.710;2024-01-10T00:29:01;4.90;;;2.92;;
81231;SDS011;70703;55.652;37.710;2024-01-10T00:29:13;4.90;;;2.75;;
81231;SDS011;70703;55.652;37.710;2024-01-10T00:29:25;5.50;;;2.80;;
81231;SDS011;70703;55.652;37.710;2024-01-10T00:29:36;5.40;;;2.80;;
81231;SDS011;70703;55.652;37.710;2024-01-10T00:29:47;5.13;;;2.70;;
81231;SDS011;70703;55.652;37.710;2024-01-10T00:29:58;4.70;;;2.60;;
81231;SDS011;70703;55.652;37.710;2024-01-10T00:30:10;4.70;;;2.63;;
81231;SDS011;70703;55.652;37.710;2024-01-10T00:30:22;5.00;;;2.78;;
81231;SDS011;70703;55.652;37.710;2024-01-10T00:30:34;5.25;;;2.92;;
81231;SDS011;70703;55.652;37.710;2024-01-10T00:30:46;5.55;;;2.90;;
81231;SDS011;70703;55.652;37.710;2024-01-10T00:30:58;5.60;;;2.80;;
81231;SDS011;70703;55.652;37.710;2024-01-10T00:31:10;5.15;;;2.60;;
81231;SDS011;70703;55.652;37.710;2024-01-10T00:31:21;4.53;;;2.58;;
81231;SDS011;70703;55.652;37.710;2024-01-10T00:31:33;4.55;;;2.60;;
81231;SDS011;70703;55.652;37.710;2024-01-10T00:31:45;4.88;;;2.80;;
81231;SDS011;70703;55.652;37.710;2024-01-10T00:31:57;5.00;;;2.80;;
81231;SDS011;70703;55.652;37.710;2024-01-10T00:32:09;5.05;;;2.83;;
81231;SDS011;70703;55.652;37.710;2024-01-10T00:32:21;4.75;;;2.72;;
81231;SDS011;70703;55.652;37.710;2024-01-10T00:32:32;5.05;;;2.80;;
81231;SDS011;70703;55.652;37.710;2024-01-10T00:32:43;5.32;;;2.78;;
81231;SDS011;70703;55.652;37.710;2024-01-10T00:32:55;6.45;;;3.00;;
81231;SDS011;70703;55.652;37.710;2024-01-10T00:33:06;6.78;;;3.10;;
81231;SDS011;70703;55.652;37.710;2024-01-10T00:33:19;6.50;;;3.20;;
81231;SDS011;70703;55.652;37.710;2024-01-10T00:33:30;5.22;;;3.00;;
81231;SDS011;70703;55.652;37.710;2024-01-10T00:33:42;4.68;;;2.80;;
81231;SDS011;70703;55.652;37.710;2024-01-10T00:33:54;4.95;;;2.70;;
81231;SDS011;70703;55.652;37.710;2024-01-10T00:34:06;5.40;;;2.83;;
81231;SDS011;70703;55.652;37.710;2024-01-10T00:34:17;5.75;;;2.90;;
81231;SDS011;70703;55.652;37.710;2024-01-10T00:34:30;5.45;;;2.85;;
81231;SDS011;70703;55.652;37.710;2024-01-10T00:34:41;4.35;;;2.65;;
81231;SDS011;70703;55.652;37.710;2024-01-10T00:34:53;4.30;;;2.50;;
81231;SDS011;70703;55.652;37.710;2024-01-10T00:35:04;4.60;;;2.60;;
81231;SDS011;70703;55.652;37.710;2024-01-10T00:35:16;4.68;;;2.50;;
81231;SDS011;70703;55.652;37.710;2024-01-10T00:35:27;4.78;;;2.58;;
81231;SDS011;70703;55.652;37.710;2024-01-10T00:35:39;4.70;;;2.60;;
81231;SDS011;70703;55.652;37.710;2024-01-10T00:35:52;5.32;;;2.75;;
81231;SDS011;70703;55.652;37.710;2024-01-10T00:36:04;5.70;;;2.80;;
81231;SDS011;70703;55.652;37.710;2024-01-10T00:36:17;5.25;;;2.63;;
81231;SDS011;70703;55.652;37.710;2024-01-10T00:36:28;4.93;;;2.53;;
81231;SDS011;70703;55.652;37.710;2024-01-10T00:36:40;5.20;;;2.60;;
81231;SDS011;70703;55.652;37.710;2024-01-10T00:36:51;5.18;;;2.60;;
81231;SDS011;70703;55.652;37.710;2024-01-10T00:37:02;5.05;;;2.58;;
81231;SDS011;70703;55.652;37.710;2024-01-10T00:37:14;5.05;;;2.67;;
81231;SDS011;70703;55.652;37.710;2024-01-10T00:37:27;5.28;;;2.70;;
81231;SDS011;70703;55.652;37.710;2024-01-10T00:37:38;6.03;;;2.78;;
81231;SDS011;70703;55.652;37.710;2024-01-10T00:37:49;5.70;;;2.75;;
81231;SDS011;70703;55.652;37.710;2024-01-10T00:38:03;5.07;;;2.78;;
81231;SDS011;70703;55.652;37.710;2024-01-10T00:38:16;5.22;;;2.80;;
81231;SDS011;70703;55.652;37.710;2024-01-10T00:38:29;5.22;;;2.80;;
81231;SDS011;70703;55.652;37.710;2024-01-10T00:38:41;4.95;;;2.75;;
81231;SDS011;70703;55.652;37.710;2024-01-10T00:38:52;4.60;;;2.78;;
81231;SDS011;70703;55.652;37.710;2024-01-10T00:39:03;4.35;;;2.70;;
81231;SDS011;70703;55.652;37.710;2024-01-10T00:39:14;4.13;;;2.53;;
81231;SDS011;70703;55.652;37.710;2024-01-10T00:39:26;5.03;;;2.63;;
81231;SDS011;70703;55.652;37.710;2024-01-10T00:39:39;5.03;;;2.72;;
81231;SDS011;70703;55.652;37.710;2024-01-10T00:39:51;4.72;;;2.50;;
81231;SDS011;70703;55.652;37.710;2024-01-10T00:40:03;4.20;;;2.55;;
81231;SDS011;70703;55.652;37.710;2024-01-10T00:40:16;4.22;;;2.70;;
81231;SDS011;70703;55.652;37.710;2024-01-10T00:40:29;4.60;;;2.70;;
81231;SDS011;70703;55.652;37.710;2024-01-10T00:40:41;4.55;;;2.63;;
81231;SDS011;70703;55.652;37.710;2024-01-10T00:40:52;4.72;;;2.75;;
81231;SDS011;70703;55.652;37.710;2024-01-10T00:41:04;5.88;;;2.90;;
81231;SDS011;70703;55.652;37.710;2024-01-10T00:41:15;6.02;;;2.78;;
81231;SDS011;70703;55.652;37.710;2024-01-10T00:41:27;5.85;;;2.80;;
81231;SDS011;70703;55.652;37.710;2024-01-10T00:41:38;6.40;;;2.88;;
81231;SDS011;70703;55.652;37.710;2024-01-10T00:41:49;6.78;;;2.90;;
81231;SDS011;70703;55.652;37.710;2024-01-10T00:42:01;6.38;;;2.85;;
81231;SDS011;70703;55.652;37.710;2024-01-10T00:42:12;4.82;;;2.60;;
81231;SDS011;70703;55.652;37.710;2024-01-10T00:42:23;5.22;;;2.60;;
81231;SDS011;70703;55.652;37.710;2024-01-10T00:42:36;5.15;;;2.50;;
81231;SDS011;70703;55.652;37.710;2024-01-10T00:42:48;4.68;;;2.50;;
81231;SDS011;70703;55.652;37.710;2024-01-10T00:42:59;4.30;;;2.43;;
81231;SDS011;70703;55.652;37.710;2024-01-10T00:43:11;5.03;;;2.58;;
81231;SDS011;70703;55.652;37.710;2024-01-10T00:43:22;4.95;;;2.60;;
81231;SDS011;70703;55.652;37.710;2024-01-10T00:43:34;4.88;;;2.60;;
81231;SDS011;70703;55.652;37.710;2024-01-10T00:43:45;4.20;;;2.58;;
81231;SDS011;70703;55.652;37.710;2024-01-10T00:43:56;4.75;;;2.70;;
81231;SDS011;70703;55.652;37.710;2024-01-10T00:44:07;4.80;;;2.70;;
81231;SDS011;70703;55.652;37.710;2024-01-10T00:44:19;4.78;;;2.70;;
81231;SDS011;70703;55.652;37.710;2024-01-10T00:44:31;4.60;;;2.67;;
81231;SDS011;70703;55.652;37.710;2024-01-10T00:44:43;4.82;;;2.75;;
81231;SDS011;70703;55.652;37.710;2024-01-10T00:44:55;4.57;;;2.63;;
81231;SDS011;70703;55.652;37.710;2024-01-10T00:45:08;4.40;;;2.70;;
81231;SDS011;70703;55.652;37.710;2024-01-10T00:45:21;4.75;;;2.70;;
81231;SDS011;70703;55.652;37.710;2024-01-10T00:45:33;4.78;;;2.60;;
81231;SDS011;70703;55.652;37.710;2024-01-10T00:45:44;4.97;;;2.67;;
81231;SDS011;70703;55.652;37.710;2024-01-10T00:45:56;4.72;;;2.67;;
81231;SDS011;70703;55.652;37.710;2024-01-10T00:46:07;5.15;;;2.90;;
81231;SDS011;70703;55.652;37.710;2024-01-10T00:46:18;5.13;;;2.80;;
81231;SDS011;70703;55.652;37.710;2024-01-10T00:46:29;5.15;;;2.67;;
81231;SDS011;70703;55.652;37.710;2024-01-10T00:46:42;4.85;;;2.60;;
81231;SDS011;70703;55.652;37.710;2024-01-10T00:46:53;5.25;;;2.80;;
81231;SDS011;70703;55.652;37.710;2024-01-10T00:47:05;5.35;;;2.88;;
81231;SDS011;70703;55.652;37.710;2024-01-10T00:47:16;5.03;;;2.75;;
81231;SDS011;70703;55.652;37.710;2024-01-10T00:47:28;4.75;;;2.60;;
81231;SDS011;70703;55.652;37.710;2024-01-10T00:47:40;4.75;;;2.63;;
81231;SDS011;70703;55.652;37.710;2024-01-10T00:47:52;4.60;;;2.60;;
81231;SDS011;70703;55.652;37.710;2024-01-10T00:48:04;4.55;;;2.50;;
81231;SDS011;70703;55.652;37.710;2024-01-10T00:48:15;4.15;;;2.30;;
81231;SDS011;70703;55.652;37.710;2024-01-10T00:48:28;4.10;;;2.20;;
81231;SDS011;70703;55.652;37.710;2024-01-10T00:48:39;3.97;;;2.22;;
81231;SDS011;70703;55.652;37.710;2024-01-10T00:48:50;4.80;;;2.55;;
81231;SDS011;70703;55.652;37.710;2024-01-10T00:49:01;4.97;;;2.70;;
81231;SDS011;70703;55.652;37.710;2024-01-10T00:49:13;4.60;;;2.67;;
81231;SDS011;70703;55.652;37.710;2024-01-10T00:49:25;4.65;;;2.50;;
81231;SDS011;70703;55.652;37.710;2024-01-10T00:49:36;4.38;;;2.38;;
81231;SDS011;70703;55.652;37.710;2024-01-10T00:49:47;4.25;;;2.35;;
81231;SDS011;70703;55.652;37.710;2024-01-10T00:50:00;3.92;;;2.30;;
81231;SDS011;70703;55.652;37.710;2024-01-10T00:50:11;3.70;;;2.20;;
81231;SDS011;70703;55.652;37.710;2024-01-10T00:50:23;4.25;;;2.20;;
81231;SDS011;70703;55.652;37.710;2024-01-10T00:50:36;4.50;;;2.20;;
81231;SDS011;70703;55.652;37.710;2024-01-10T00:50:47;4.57;;;2.22;;
81231;SDS011;70703;55.652;37.710;2024-01-10T00:50:59;4.57;;;2.30;;
81231;SDS011;70703;55.652;37.710;2024-01-10T00:51:09;4.28;;;2.30;;
81231;SDS011;70703;55.652;37.710;2024-01-10T00:51:21;4.25;;;2.40;;
81231;SDS011;70703;55.652;37.710;2024-01-10T00:51:32;4.10;;;2.30;;
81231;SDS011;70703;55.652;37.710;2024-01-10T00:51:45;4.13;;;2.40;;
81231;SDS011;70703;55.652;37.710;2024-01-10T00:51:56;4.00;;;2.40;;
81231;SDS011;70703;55.652;37.710;2024-01-10T00:52:08;4.00;;;2.40;;
81231;SDS011;70703;55.652;37.710;2024-01-10T00:52:20;4.18;;;2.40;;
81231;SDS011;70703;55.652;37.710;2024-01-10T00:52:32;4.35;;;2.40;;
81231;SDS011;70703;55.652;37.710;2024-01-10T00:52:44;4.30;;;2.40;;
81231;SDS011;70703;55.652;37.710;2024-01-10T00:52:56;4.75;;;2.40;;
81231;SDS011;70703;55.652;37.710;2024-01-10T00:53:07;4.55;;;2.20;;
81231;SDS011;70703;55.652;37.710;2024-01-10T00:53:18;4.53;;;2.33;;
81231;SDS011;70703;55.652;37.710;2024-01-10T00:53:31;4.53;;;2.42;;
81231;SDS011;70703;55.652;37.710;2024-01-10T00:53:43;4.32;;;2.40;;
81231;SDS011;70703;55.652;37.710;2024-01-10T00:53:55;4.32;;;2.30;;
81231;SDS011;70703;55.652;37.710;2024-01-10T00:54:07;4.25;;;2.17;;
81231;SDS011;70703;55.652;37.710;2024-01-10T00:54:18;4.18;;;2.20;;
81231;SDS011;70703;55.652;37.710;2024-01-10T00:54:30;4.20;;;2.20;;
81231;SDS011;70703;55.652;37.710;2024-01-10T00:54:42;3.95;;;2.10;;
81231;SDS011;70703;55.652;37.710;2024-01-10T00:54:55;3.95;;;2.17;;
81231;SDS011;70703;55.652;37.710;2024-01-10T00:55:07;4.22;;;2.35;;
81231;SDS011;70703;55.652;37.710;2024-01-10T00:55:18;4.18;;;2.28;;
81231;SDS011;70703;55.652;37.710;2024-01-10T00:55:30;4.25;;;2.20;;
81231;SDS011;70703;55.652;37.710;2024-01-10T00:55:42;4.30;;;2.30;;
81231;SDS011;70703;55.652;37.710;2024-01-10T00:55:53;4.35;;;2.20;;
81231;SDS011;70703;55.652;37.710;2024-01-10T00:56:06;4.35;;;2.28;;
81231;SDS011;70703;55.652;37.710;2024-01-10T00:56:17;3.72;;;2.10;;
81231;SDS011;70703;55.652;37.710;2024-01-10T00:56:29;3.83;;;2.10;;
81231;SDS011;70703;55.652;37.710;2024-01-10T00:56:41;3.80;;;2.10;;
81231;SDS011;70703;55.652;37.710;2024-01-10T00:56:52;4.20;;;2.20;;
81231;SDS011;70703;55.652;37.710;2024-01-10T00:57:03;4.10;;;2.25;;
81231;SDS011;70703;55.652;37.710;2024-01-10T00:57:14;4.18;;;2.20;;
81231;SDS011;70703;55.652;37.710;2024-01-10T00:57:25;4.50;;;2.13;;
81231;SDS011;70703;55.652;37.710;2024-01-10T00:57:37;4.40;;;2.10;;
81231;SDS011;70703;55.652;37.710;2024-01-10T00:57:49;4.90;;;2.20;;
81231;SDS011;70703;55.652;37.710;2024-01-10T00:58:00;4.75;;;2.30;;
81231;SDS011;70703;55.652;37.710;2024-01-10T00:58:11;4.45;;;2.17;;
81231;SDS011;70703;55.652;37.710;2024-01-10T00:58:24;4.30;;;2.20;;
81231;SDS011;70703;55.652;37.710;2024-01-10T00:58:35;4.35;;;2.25;;
81231;SDS011;70703;55.652;37.710;2024-01-10T00:58:46;4.28;;;2.22;;
81231;SDS011;70703;55.652;37.710;2024-01-10T00:58:59;3.72;;;2.06;;
81231;SDS011;70703;55.652;37.710;2024-01-10T00:59:10;3.78;;;2.08;;
81231;SDS011;70703;55.652;37.710;2024-01-10T00:59:22;3.70;;;1.90;;
81231;SDS011;70703;55.652;37.710;2024-01-10T00:59:33;3.85;;;1.80;;
81231;SDS011;70703;55.652;37.710;2024-01-10T00:59:44;3.75;;;1.70;;
81231;SDS011;70703;55.652;37.710;2024-01-10T00:59:57;3.85;;;1.83;;
81231;SDS011;70703;55.652;37.710;2024-01-10T01:00:10;3.47;;;1.90;;
81231;SDS011;70703;55.652;37.710;2024-01-10T01:00:22;3.20;;;1.80;;
81231;SDS011;70703;55.652;37.710;2024-01-10T01:00:33;3.28;;;1.83;;
81231;SDS011;70703;55.652;37.710;2024-01-10T01:00:44;3.65;;;1.95;;
81231;SDS011;70703;55.652;37.710;2024-01-10T01:00:56;3.80;;;1.90;;
81231;SDS011;70703;55.652;37.710;2024-01-10T01:01:07;3.74;;;2.00;;
81231;SDS011;70703;55.652;37.710;2024-01-10T01:01:19;3.60;;;1.90;;
81231;SDS011;70703;55.652;37.710;2024-01-10T01:01:30;3.65;;;1.92;;
81231;SDS011;70703;55.652;37.710;2024-01-10T01:01:41;3.83;;;1.98;;
81231;SDS011;70703;55.652;37.710;2024-01-10T01:01:53;3.63;;;1.90;;
81231;SDS011;70703;55.652;37.710;2024-01-10T01:02:04;3.63;;;1.88;;
81231;SDS011;70703;55.652;37.710;2024-01-10T01:02:15;3.55;;;1.80;;
81231;SDS011;70703;55.652;37.710;2024-01-10T01:02:26;3.78;;;1.92;;
81231;SDS011;70703;55.652;37.710;2024-01-10T01:02:38;3.90;;;1.90;;
81231;SDS011;70703;55.652;37.710;2024-01-10T01:02:49;3.53;;;1.80;;
81231;SDS011;70703;55.652;37.710;2024-01-10T01:03:00;3.20;;;1.70;;
81231;SDS011;70703;55.652;37.710;2024-01-10T01:03:12;3.08;;;1.60;;
81231;SDS011;70703;55.652;37.710;2024-01-10T01:03:23;3.67;;;1.60;;
81231;SDS011;70703;55.652;37.710;2024-01-10T01:03:34;3.77;;;1.60;;
81231;SDS011;70703;55.652;37.710;2024-01-10T01:03:47;3.42;;;1.70;;
81231;SDS011;70703;55.652;37.710;2024-01-10T01:04:00;3.22;;;1.60;;
81231;SDS011;70703;55.652;37.710;2024-01-10T01:04:12;3.00;;;1.50;;
81231;SDS011;70703;55.652;37.710;2024-01-10T01:04:23;2.92;;;1.50;;
81231;SDS011;70703;55.652;37.710;2024-01-10T01:04:35;2.97;;;1.60;;
81231;SDS011;70703;55.652;37.710;2024-01-10T01:04:47;3.40;;;1.60;;
81231;SDS011;70703;55.652;37.710;2024-01-10T01:04:58;3.50;;;1.60;;
81231;SDS011;70703;55.652;37.710;2024-01-10T01:05:09;3.30;;;1.50;;
81231;SDS011;70703;55.652;37.710;2024-01-10T01:05:21;3.38;;;1.42;;
81231;SDS011;70703;55.652;37.710;2024-01-10T01:05:34;3.70;;;1.60;;
81231;SDS011;70703;55.652;37.710;2024-01-10T01:05:46;4.78;;;1.83;;
81231;SDS011;70703;55.652;37.710;2024-01-10T01:05:57;4.43;;;1.83;;
81231;SDS011;70703;55.652;37.710;2024-01-10T01:06:08;4.47;;;1.80;;
81231;SDS011;70703;55.652;37.710;2024-01-10T01:06:19;3.20;;;1.60;;
81231;SDS011;70703;55.652;37.710;2024-01-10T01:06:31;3.10;;;1.60;;
81231;SDS011;70703;55.652;37.710;2024-01-10T01:06:42;3.03;;;1.52;;
81231;SDS011;70703;55.652;37.710;2024-01-10T01:06:54;2.95;;;1.52;;
81231;SDS011;70703;55.652;37.710;2024-01-10T01:07:07;3.30;;;1.65;;
81231;SDS011;70703;55.652;37.710;2024-01-10T01:07:19;3.33;;;1.60;;
81231;SDS011;70703;55.652;37.710;2024-01-10T01:07:31;3.22;;;1.50;;
81231;SDS011;70703;55.652;37.710;2024-01-10T01:07:43;3.17;;;1.42;;
81231;SDS011;70703;55.652;37.710;2024-01-10T01:07:54;3.15;;;1.50;;
81231;SDS011;70703;55.652;37.710;2024-01-10T01:08:06;3.05;;;1.52;;
81231;SDS011;70703;55.652;37.710;2024-01-10T01:08:18;3.13;;;1.60;;
81231;SDS011;70703;55.652;37.710;2024-01-10T01:08:29;3.20;;;1.60;;
81231;SDS011;70703;55.652;37.710;2024-01-10T01:08:42;3.35;;;1.58;;
81231;SDS011;70703;55.652;37.710;2024-01-10T01:08:54;3.33;;;1.67;;
81231;SDS011;70703;55.652;37.710;2024-01-10T01:09:07;3.67;;;1.67;;
81231;SDS011;70703;55.652;37.710;2024-01-10T01:09:19;3.53;;;1.52;;
81231;SDS011;70703;55.652;37.710;2024-01-10T01:09:31;3.05;;;1.50;;
81231;SDS011;70703;55.652;37.710;2024-01-10T01:09:44;3.08;;;1.50;;
81231;SDS011;70703;55.652;37.710;2024-01-10T01:09:55;3.08;;;1.50;;